Time,TemperatureF,DewpointF,PressureIn,WindDirection,WindDirectionDegrees,WindSpeedMPH,WindSpeedGustMPH,Humidity,HourlyPrecipIn,Conditions,Clouds,dailyrainin,SoftwareType,DateUTC
2013-05-07 00:02:00,56.0,46.0,30.01,SSE,157,0.0,-999.0,70,-99.99,,,-99.99,,2013-05-07 05:02:00,
2013-05-07 00:12:00,56.0,46.0,30.01,SSE,157,0.0,-999.0,70,-99.99,,,-99.99,,2013-05-07 05:12:00,
2013-05-07 00:22:00,55.0,47.0,30.01,SSE,157,0.0,-999.0,73,-99.99,,,-99.99,,2013-05-07 05:22:00,
2013-05-07 00:32:00,55.0,47.0,30.01,SSE,156,0.0,-999.0,74,-99.99,,,-99.99,,2013-05-07 05:32:00,
2013-05-07 00:42:00,55.0,47.0,30.01,SSE,156,0.0,-999.0,74,-99.99,,,-99.99,,2013-05-07 05:42:00,
2013-05-07 00:52:00,55.0,47.0,30.01,SSE,157,0.0,-999.0,74,-99.99,,,-99.99,,2013-05-07 05:52:00,
2013-05-07 01:02:00,54.0,46.0,30.01,SSE,157,0.0,-999.0,75,-99.99,,,-99.99,,2013-05-07 06:02:00,
2013-05-07 01:12:00,54.0,46.0,30.01,SSE,157,0.0,-999.0,75,-99.99,,,-99.99,,2013-05-07 06:12:00,
2013-05-07 01:22:00,54.0,46.0,30.01,SSE,157,0.0,-999.0,75,-99.99,,,-99.99,,2013-05-07 06:22:00,
2013-05-07 01:32:00,54.0,46.0,30.01,SSE,157,2.0,-999.0,75,-99.99,,,-99.99,,2013-05-07 06:32:00,
2013-05-07 01:42:00,54.0,46.0,30.01,SSE,157,2.0,-999.0,75,-99.99,,,-99.99,,2013-05-07 06:42:00,
2013-05-07 01:52:00,54.0,46.0,30.00,SSE,157,3.0,-999.0,75,-99.99,,,-99.99,,2013-05-07 06:52:00,
2013-05-07 02:02:00,54.0,46.0,30.00,SSE,156,4.0,-999.0,75,-99.99,,,-99.99,,2013-05-07 07:02:00,
2013-05-07 02:11:00,54.0,46.0,30.00,SSE,156,4.0,-999.0,75,-99.99,,,-99.99,,2013-05-07 07:11:00,
2013-05-07 02:22:00,54.0,46.0,30.00,SSE,157,3.0,-999.0,75,-99.99,,,-99.99,,2013-05-07 07:22:00,
2013-05-07 02:31:00,53.0,46.0,30.00,SSE,156,2.0,-999.0,76,-99.99,,,-99.99,,2013-05-07 07:31:00,
2013-05-07 02:42:00,53.0,46.0,30.00,SSE,156,2.0,-999.0,76,-99.99,,,-99.99,,2013-05-07 07:42:00,
2013-05-07 02:52:00,51.0,45.0,30.00,SSE,156,2.0,-999.0,79,-99.99,,,-99.99,,2013-05-07 07:52:00,
2013-05-07 03:02:00,51.0,45.0,29.99,SSE,157,3.0,-999.0,79,-99.99,,,-99.99,,2013-05-07 08:02:00,
2013-05-07 03:11:00,51.0,45.0,29.99,SSE,157,3.0,-999.0,79,-99.99,,,-99.99,,2013-05-07 08:11:00,
2013-05-07 03:21:00,51.0,45.0,29.99,SSE,157,2.0,-999.0,79,-99.99,,,-99.99,,2013-05-07 08:21:00,
2013-05-07 03:31:00,51.0,45.0,29.99,SSE,157,2.0,-999.0,79,-99.99,,,-99.99,,2013-05-07 08:31:00,
2013-05-07 03:42:00,51.0,45.0,29.99,SSE,157,2.0,-999.0,79,-99.99,,,-99.99,,2013-05-07 08:42:00,
2013-05-07 03:52:00,50.0,44.0,29.99,SSE,157,2.0,-999.0,81,-99.99,,,-99.99,,2013-05-07 08:52:00,
2013-05-07 04:01:00,49.0,44.0,29.99,SSE,157,1.0,-999.0,83,-99.99,,,-99.99,,2013-05-07 09:01:00,
2013-05-07 04:11:00,49.0,44.0,29.99,SSE,157,1.0,-999.0,83,-99.99,,,-99.99,,2013-05-07 09:11:00,
2013-05-07 04:22:00,49.0,44.0,29.99,SSE,156,0.0,-999.0,83,-99.99,,,-99.99,,2013-05-07 09:22:00,
2013-05-07 04:33:00,48.0,43.0,29.99,SSE,157,0.0,-999.0,84,-99.99,,,-99.99,,2013-05-07 09:33:00,
2013-05-07 04:42:00,48.0,43.0,29.99,SSE,157,0.0,-999.0,84,-99.99,,,-99.99,,2013-05-07 09:42:00,
2013-05-07 04:52:00,48.0,44.0,29.99,SSE,157,0.0,-999.0,85,-99.99,,,-99.99,,2013-05-07 09:52:00,
2013-05-07 05:03:00,48.0,44.0,30.00,SSE,157,0.0,-999.0,86,-99.99,,,-99.99,,2013-05-07 10:03:00,
2013-05-07 05:12:00,48.0,44.0,30.00,SSE,157,0.0,-999.0,86,-99.99,,,-99.99,,2013-05-07 10:12:00,
2013-05-07 05:23:00,48.0,44.0,30.00,SSE,157,5.0,-999.0,86,-99.99,,,-99.99,,2013-05-07 10:23:00,
2013-05-07 05:32:00,48.0,44.0,30.00,SSE,156,4.0,-999.0,85,-99.99,,,-99.99,,2013-05-07 10:32:00,
2013-05-07 05:42:00,47.0,43.0,30.00,SSE,157,3.0,-999.0,85,-99.99,,,-99.99,,2013-05-07 10:42:00,
2013-05-07 05:52:00,47.0,43.0,30.00,SSE,157,3.0,-999.0,85,-99.99,,,-99.99,,2013-05-07 10:52:00,
2013-05-07 06:02:00,47.0,43.0,30.00,SSE,157,2.0,-999.0,85,-99.99,,,-99.99,,2013-05-07 11:02:00,
2013-05-07 06:12:00,47.0,43.0,30.00,SSE,157,2.0,-999.0,85,-99.99,,,-99.99,,2013-05-07 11:12:00,
2013-05-07 06:22:00,45.0,41.0,30.00,SSE,157,2.0,-999.0,87,-99.99,,,-99.99,,2013-05-07 11:22:00,
2013-05-07 06:32:00,45.0,42.0,30.01,SSE,157,2.0,-999.0,88,-99.99,,,-99.99,,2013-05-07 11:32:00,
2013-05-07 06:42:00,45.0,42.0,30.01,SSE,157,2.0,-999.0,88,-99.99,,,-99.99,,2013-05-07 11:42:00,
2013-05-07 06:51:00,45.0,42.0,30.01,SSE,157,2.0,-999.0,88,-99.99,,,-99.99,,2013-05-07 11:51:00,
2013-05-07 07:02:00,45.0,42.0,30.01,SSE,157,3.0,-999.0,89,-99.99,,,-99.99,,2013-05-07 12:02:00,
2013-05-07 07:11:00,45.0,42.0,30.01,SSE,157,3.0,-999.0,89,-99.99,,,-99.99,,2013-05-07 12:11:00,
2013-05-07 07:21:00,46.0,42.0,30.01,SSE,156,1.0,-999.0,87,-99.99,,,-99.99,,2013-05-07 12:21:00,
2013-05-07 07:32:00,47.0,43.0,30.02,SSE,157,0.0,-999.0,85,-99.99,,,-99.99,,2013-05-07 12:32:00,
2013-05-07 07:42:00,47.0,43.0,30.02,SSE,157,0.0,-999.0,85,-99.99,,,-99.99,,2013-05-07 12:42:00,
2013-05-07 07:52:00,47.0,43.0,30.01,SSE,157,0.0,-999.0,85,-99.99,,,-99.99,,2013-05-07 12:52:00,
2013-05-07 08:02:00,49.0,44.0,30.02,SSE,156,0.0,-999.0,83,-99.99,,,-99.99,,2013-05-07 13:02:00,
2013-05-07 08:11:00,49.0,44.0,30.02,SSE,156,0.0,-999.0,83,-99.99,,,-99.99,,2013-05-07 13:11:00,
2013-05-07 08:21:00,50.0,45.0,30.01,SSE,156,0.0,-999.0,82,-99.99,,,-99.99,,2013-05-07 13:21:00,
2013-05-07 08:32:00,53.0,47.0,30.02,SSE,157,0.0,-999.0,81,-99.99,,,-99.99,,2013-05-07 13:32:00,
2013-05-07 08:42:00,53.0,47.0,30.02,SSE,157,0.0,-999.0,81,-99.99,,,-99.99,,2013-05-07 13:42:00,
2013-05-07 08:52:00,54.0,47.0,30.01,SSE,156,2.0,-999.0,77,-99.99,,,-99.99,,2013-05-07 13:52:00,
2013-05-07 09:02:00,57.0,48.0,30.01,SSE,156,4.0,-999.0,71,-99.99,,,-99.99,,2013-05-07 14:02:00,
2013-05-07 09:11:00,57.0,48.0,30.01,SSE,156,4.0,-999.0,71,-99.99,,,-99.99,,2013-05-07 14:11:00,
2013-05-07 09:21:00,59.0,49.0,30.01,SSE,157,3.0,-999.0,69,-99.99,,,-99.99,,2013-05-07 14:21:00,
2013-05-07 09:32:00,61.0,50.0,30.01,SSE,157,3.0,-999.0,66,-99.99,,,-99.99,,2013-05-07 14:32:00,
2013-05-07 09:42:00,61.0,50.0,30.01,SSE,157,3.0,-999.0,66,-99.99,,,-99.99,,2013-05-07 14:42:00,
2013-05-07 09:52:00,63.0,49.0,30.01,SSE,157,4.0,-999.0,60,-99.99,,,-99.99,,2013-05-07 14:52:00,
2013-05-07 10:01:00,65.0,48.0,30.01,SSE,157,5.0,-999.0,55,-99.99,,,-99.99,,2013-05-07 15:01:00,
2013-05-07 10:12:00,65.0,48.0,30.01,SSE,157,5.0,-999.0,55,-99.99,,,-99.99,,2013-05-07 15:12:00,
2013-05-07 10:21:00,66.0,49.0,30.01,SSE,153,6.0,-999.0,54,-99.99,,,-99.99,,2013-05-07 15:21:00,
2013-05-07 10:33:00,66.0,49.0,30.00,North,360,8.0,-999.0,54,-99.99,,,-99.99,,2013-05-07 15:33:00,
2013-05-07 10:42:00,66.0,49.0,30.00,North,360,8.0,-999.0,54,-99.99,,,-99.99,,2013-05-07 15:42:00,
2013-05-07 10:53:00,66.0,49.0,30.00,North,360,8.0,-999.0,54,-99.99,,,-99.99,,2013-05-07 15:53:00,
2013-05-07 11:03:00,67.0,48.0,29.99,SE,138,9.0,-999.0,51,-99.99,,,-99.99,,2013-05-07 16:03:00,
2013-05-07 11:12:00,67.0,48.0,29.99,SE,138,9.0,-999.0,51,-99.99,,,-99.99,,2013-05-07 16:12:00,
2013-05-07 11:22:00,68.0,49.0,29.98,SE,138,8.0,-999.0,50,-99.99,,,-99.99,,2013-05-07 16:22:00,
2013-05-07 11:32:00,69.0,47.0,29.98,North,360,8.0,-999.0,46,-99.99,,,-99.99,,2013-05-07 16:32:00,
2013-05-07 11:41:00,69.0,47.0,29.98,North,360,8.0,-999.0,46,-99.99,,,-99.99,,2013-05-07 16:41:00,
2013-05-07 11:52:00,69.0,47.0,29.98,North,360,8.0,-999.0,46,-99.99,,,-99.99,,2013-05-07 16:52:00,
2013-05-07 12:01:00,70.0,46.0,29.98,SSE,154,7.0,-999.0,43,-99.99,,,-99.99,,2013-05-07 17:01:00,
2013-05-07 12:12:00,70.0,46.0,29.98,SSE,154,7.0,-999.0,43,-99.99,,,-99.99,,2013-05-07 17:12:00,
2013-05-07 12:21:00,71.0,45.0,29.97,North,360,10.0,-999.0,40,-99.99,,,-99.99,,2013-05-07 17:21:00,
2013-05-07 12:31:00,71.0,45.0,29.97,North,360,9.0,-999.0,40,-99.99,,,-99.99,,2013-05-07 17:31:00,
2013-05-07 12:41:00,71.0,45.0,29.97,North,360,9.0,-999.0,40,-99.99,,,-99.99,,2013-05-07 17:41:00,
2013-05-07 12:52:00,73.0,47.0,29.96,SSE,150,7.0,-999.0,39,-99.99,,,-99.99,,2013-05-07 17:52:00,
2013-05-07 13:01:00,73.0,44.0,29.96,SE,134,9.0,-999.0,35,-99.99,,,-99.99,,2013-05-07 18:01:00,
2013-05-07 13:11:00,73.0,44.0,29.96,SE,134,9.0,-999.0,35,-99.99,,,-99.99,,2013-05-07 18:11:00,
2013-05-07 13:21:00,73.0,44.0,29.96,North,360,9.0,-999.0,35,-99.99,,,-99.99,,2013-05-07 18:21:00,
2013-05-07 13:31:00,74.0,44.0,29.95,SSE,159,10.0,-999.0,34,-99.99,,,-99.99,,2013-05-07 18:31:00,
2013-05-07 13:41:00,74.0,44.0,29.95,SSE,159,10.0,-999.0,34,-99.99,,,-99.99,,2013-05-07 18:41:00,
2013-05-07 13:52:00,73.0,44.0,29.95,SSE,153,10.0,-999.0,35,-99.99,,,-99.99,,2013-05-07 18:52:00,
2013-05-07 14:02:00,75.0,45.0,29.94,SSE,147,5.0,-999.0,34,-99.99,,,-99.99,,2013-05-07 19:02:00,
2013-05-07 14:11:00,75.0,45.0,29.94,SSE,147,5.0,-999.0,34,-99.99,,,-99.99,,2013-05-07 19:11:00,
2013-05-07 14:21:00,76.0,43.0,29.93,South,181,6.0,-999.0,31,-99.99,,,-99.99,,2013-05-07 19:21:00,
2013-05-07 14:32:00,76.0,43.0,29.93,South,182,6.0,-999.0,31,-99.99,,,-99.99,,2013-05-07 19:32:00,
2013-05-07 14:42:00,76.0,43.0,29.93,South,182,6.0,-999.0,31,-99.99,,,-99.99,,2013-05-07 19:42:00,
2013-05-07 14:52:00,77.0,43.0,29.93,SSE,164,6.0,-999.0,30,-99.99,,,-99.99,,2013-05-07 19:52:00,
2013-05-07 15:02:00,78.0,44.0,29.93,SSE,159,4.0,-999.0,30,-99.99,,,-99.99,,2013-05-07 20:02:00,
2013-05-07 15:11:00,78.0,44.0,29.93,SSE,159,4.0,-999.0,30,-99.99,,,-99.99,,2013-05-07 20:11:00,
2013-05-07 15:22:00,77.0,44.0,29.92,South,169,3.0,-999.0,31,-99.99,,,-99.99,,2013-05-07 20:22:00,
2013-05-07 15:32:00,77.0,44.0,29.92,SSE,149,7.0,-999.0,31,-99.99,,,-99.99,,2013-05-07 20:32:00,
2013-05-07 15:42:00,77.0,44.0,29.92,SSE,149,7.0,-999.0,31,-99.99,,,-99.99,,2013-05-07 20:42:00,
2013-05-07 15:52:00,77.0,44.0,29.92,SSE,149,7.0,-999.0,31,-99.99,,,-99.99,,2013-05-07 20:52:00,
2013-05-07 16:01:00,77.0,43.0,29.91,SSE,155,7.0,-999.0,30,-99.99,,,-99.99,,2013-05-07 21:01:00,
2013-05-07 16:11:00,77.0,43.0,29.91,SSE,155,7.0,-999.0,30,-99.99,,,-99.99,,2013-05-07 21:11:00,
2013-05-07 16:22:00,78.0,44.0,29.91,SE,144,3.0,-999.0,30,-99.99,,,-99.99,,2013-05-07 21:22:00,
2013-05-07 16:32:00,78.0,44.0,29.90,South,178,6.0,-999.0,30,-99.99,,,-99.99,,2013-05-07 21:32:00,
2013-05-07 16:42:00,78.0,44.0,29.90,South,178,6.0,-999.0,30,-99.99,,,-99.99,,2013-05-07 21:42:00,
2013-05-07 16:52:00,78.0,44.0,29.90,SSE,164,4.0,-999.0,30,-99.99,,,-99.99,,2013-05-07 21:52:00,
2013-05-07 17:02:00,77.0,44.0,29.89,SSE,156,6.0,-999.0,31,-99.99,,,-99.99,,2013-05-07 22:02:00,
2013-05-07 17:13:00,77.0,44.0,29.89,SSE,156,6.0,-999.0,31,-99.99,,,-99.99,,2013-05-07 22:13:00,
2013-05-07 17:22:00,78.0,45.0,29.89,SSE,159,5.0,-999.0,31,-99.99,,,-99.99,,2013-05-07 22:22:00,
2013-05-07 17:33:00,77.0,44.0,29.88,SW,227,6.0,-999.0,31,-99.99,,,-99.99,,2013-05-07 22:33:00,
2013-05-07 17:42:00,77.0,44.0,29.88,SW,227,6.0,-999.0,31,-99.99,,,-99.99,,2013-05-07 22:42:00,
2013-05-07 17:52:00,76.0,44.0,29.88,South,191,6.0,-999.0,32,-99.99,,,-99.99,,2013-05-07 22:52:00,
2013-05-07 18:02:00,77.0,45.0,29.88,SE,138,4.0,-999.0,32,-99.99,,,-99.99,,2013-05-07 23:02:00,
2013-05-07 18:12:00,77.0,45.0,29.88,SE,138,4.0,-999.0,32,-99.99,,,-99.99,,2013-05-07 23:12:00,
2013-05-07 18:21:00,78.0,46.0,29.88,SSE,147,4.0,-999.0,32,-99.99,,,-99.99,,2013-05-07 23:21:00,
2013-05-07 18:32:00,78.0,45.0,29.87,SSE,165,2.0,-999.0,31,-99.99,,,-99.99,,2013-05-07 23:32:00,
2013-05-07 18:42:00,76.0,44.0,29.87,SSE,163,2.0,-999.0,32,-99.99,,,-99.99,,2013-05-07 23:42:00,
2013-05-07 18:52:00,76.0,44.0,29.87,SSE,163,2.0,-999.0,32,-99.99,,,-99.99,,2013-05-07 23:52:00,
2013-05-07 19:02:00,76.0,44.0,29.87,SSE,162,0.0,-999.0,32,-99.99,,,-99.99,,2013-05-08 00:02:00,
2013-05-07 19:11:00,76.0,44.0,29.87,SSE,162,0.0,-999.0,32,-99.99,,,-99.99,,2013-05-08 00:11:00,
2013-05-07 19:21:00,75.0,45.0,29.87,South,179,3.0,-999.0,34,-99.99,,,-99.99,,2013-05-08 00:21:00,
2013-05-07 19:32:00,74.0,44.0,29.87,SSE,148,6.0,-999.0,34,-99.99,,,-99.99,,2013-05-08 00:32:00,
2013-05-07 19:42:00,74.0,44.0,29.87,SSE,148,6.0,-999.0,34,-99.99,,,-99.99,,2013-05-08 00:42:00,
2013-05-07 19:51:00,74.0,45.0,29.87,SSE,164,4.0,-999.0,35,-99.99,,,-99.99,,2013-05-08 00:51:00,
2013-05-07 20:02:00,74.0,45.0,29.86,South,173,3.0,-999.0,36,-99.99,,,-99.99,,2013-05-08 01:02:00,
2013-05-07 20:11:00,74.0,45.0,29.86,South,173,3.0,-999.0,36,-99.99,,,-99.99,,2013-05-08 01:11:00,
2013-05-07 20:21:00,73.0,46.0,29.87,South,178,5.0,-999.0,38,-99.99,,,-99.99,,2013-05-08 01:21:00,
2013-05-07 20:32:00,72.0,46.0,29.87,South,178,2.0,-999.0,39,-99.99,,,-99.99,,2013-05-08 01:32:00,
2013-05-07 20:42:00,72.0,46.0,29.87,South,178,2.0,-999.0,39,-99.99,,,-99.99,,2013-05-08 01:42:00,
2013-05-07 20:52:00,71.0,45.0,29.87,South,178,0.0,-999.0,40,-99.99,,,-99.99,,2013-05-08 01:52:00,
2013-05-07 21:01:00,71.0,45.0,29.87,South,178,0.0,-999.0,39,-99.99,,,-99.99,,2013-05-08 02:01:00,
2013-05-07 21:12:00,71.0,45.0,29.87,South,178,0.0,-999.0,39,-99.99,,,-99.99,,2013-05-08 02:12:00,
2013-05-07 21:22:00,70.0,45.0,29.87,South,178,0.0,-999.0,41,-99.99,,,-99.99,,2013-05-08 02:22:00,
2013-05-07 21:32:00,70.0,45.0,29.87,South,178,0.0,-999.0,41,-99.99,,,-99.99,,2013-05-08 02:32:00,
2013-05-07 21:42:00,70.0,45.0,29.87,South,178,0.0,-999.0,41,-99.99,,,-99.99,,2013-05-08 02:42:00,
2013-05-07 21:52:00,69.0,46.0,29.88,South,178,0.0,-999.0,43,-99.99,,,-99.99,,2013-05-08 02:52:00,
2013-05-07 22:02:00,69.0,45.0,29.88,South,178,0.0,-999.0,42,-99.99,,,-99.99,,2013-05-08 03:02:00,
2013-05-07 22:11:00,69.0,45.0,29.88,South,178,0.0,-999.0,42,-99.99,,,-99.99,,2013-05-08 03:11:00,
2013-05-07 22:21:00,68.0,45.0,29.88,South,178,0.0,-999.0,43,-99.99,,,-99.99,,2013-05-08 03:21:00,
2013-05-07 22:32:00,67.0,45.0,29.89,South,178,3.0,-999.0,45,-99.99,,,-99.99,,2013-05-08 03:32:00,
2013-05-07 22:43:00,67.0,45.0,29.89,South,178,3.0,-999.0,45,-99.99,,,-99.99,,2013-05-08 03:43:00,
2013-05-07 22:52:00,66.0,46.0,29.88,South,178,3.0,-999.0,48,-99.99,,,-99.99,,2013-05-08 03:52:00,
2013-05-07 23:02:00,66.0,46.0,29.89,South,178,2.0,-999.0,49,-99.99,,,-99.99,,2013-05-08 04:02:00,
2013-05-07 23:13:00,66.0,46.0,29.89,South,178,2.0,-999.0,49,-99.99,,,-99.99,,2013-05-08 04:13:00,
2013-05-07 23:23:00,65.0,45.0,29.88,South,178,2.0,-999.0,49,-99.99,,,-99.99,,2013-05-08 04:23:00,
2013-05-07 23:33:00,65.0,46.0,29.88,South,178,0.0,-999.0,51,-99.99,,,-99.99,,2013-05-08 04:33:00,
2013-05-07 23:42:00,65.0,46.0,29.88,South,178,0.0,-999.0,51,-99.99,,,-99.99,,2013-05-08 04:42:00,
2013-05-07 23:52:00,64.0,45.0,29.88,South,178,0.0,-999.0,51,-99.99,,,-99.99,,2013-05-08 04:52:00,